sensor_id;sensor_type;location;lat;lon;timestamp;P1;durP1;ratioP1;P2;durP2;ratioP2
7707;SDS011;3896;48.758;8.888;2023-02-01T00:01:40;1.93;;;1.77;;
7707;SDS011;3896;48.758;8.888;2023-02-01T00:04:06;1.53;;;1.43;;
7707;SDS011;3896;48.758;8.888;2023-02-01T00:06:31;1.90;;;1.80;;
7707;SDS011;3896;48.758;8.888;2023-02-01T00:08:57;2.43;;;1.73;;
7707;SDS011;3896;48.758;8.888;2023-02-01T00:11:23;1.87;;;1.73;;
7707;SDS011;3896;48.758;8.888;2023-02-01T00:13:49;2.03;;;1.90;;
7707;SDS011;3896;48.758;8.888;2023-02-01T00:16:16;2.03;;;1.63;;
7707;SDS011;3896;48.758;8.888;2023-02-01T00:18:44;1.80;;;1.70;;
7707;SDS011;3896;48.758;8.888;2023-02-01T00:21:11;1.83;;;1.73;;
7707;SDS011;3896;48.758;8.888;2023-02-01T00:23:38;1.93;;;1.83;;
7707;SDS011;3896;48.758;8.888;2023-02-01T00:26:04;1.70;;;1.50;;
7707;SDS011;3896;48.758;8.888;2023-02-01T00:28:31;2.53;;;2.07;;
7707;SDS011;3896;48.758;8.888;2023-02-01T00:31:01;1.90;;;1.80;;
7707;SDS011;3896;48.758;8.888;2023-02-01T00:33:28;2.03;;;1.83;;
7707;SDS011;3896;48.758;8.888;2023-02-01T00:35:58;2.03;;;1.63;;
7707;SDS011;3896;48.758;8.888;2023-02-01T00:38:26;1.70;;;1.50;;
7707;SDS011;3896;48.758;8.888;2023-02-01T00:40:52;3.07;;;2.00;;
7707;SDS011;3896;48.758;8.888;2023-02-01T00:43:18;1.87;;;1.77;;
7707;SDS011;3896;48.758;8.888;2023-02-01T00:45:47;2.50;;;2.10;;
7707;SDS011;3896;48.758;8.888;2023-02-01T00:48:12;2.33;;;1.70;;
7707;SDS011;3896;48.758;8.888;2023-02-01T00:50:44;1.97;;;1.87;;
7707;SDS011;3896;48.758;8.888;2023-02-01T00:53:10;2.00;;;1.87;;
7707;SDS011;3896;48.758;8.888;2023-02-01T00:55:36;1.60;;;1.50;;
7707;SDS011;3896;48.758;8.888;2023-02-01T00:58:02;1.70;;;1.60;;
7707;SDS011;3896;48.758;8.888;2023-02-01T01:00:31;1.60;;;1.50;;
7707;SDS011;3896;48.758;8.888;2023-02-01T01:02:57;1.83;;;1.73;;
7707;SDS011;3896;48.758;8.888;2023-02-01T01:05:23;2.47;;;2.17;;
7707;SDS011;3896;48.758;8.888;2023-02-01T01:07:49;2.10;;;1.97;;
7707;SDS011;3896;48.758;8.888;2023-02-01T01:10:14;2.23;;;1.67;;
7707;SDS011;3896;48.758;8.888;2023-02-01T01:12:40;1.57;;;1.47;;
7707;SDS011;3896;48.758;8.888;2023-02-01T01:15:06;2.10;;;1.90;;
7707;SDS011;3896;48.758;8.888;2023-02-01T01:17:32;1.47;;;1.37;;
7707;SDS011;3896;48.758;8.888;2023-02-01T01:19:58;1.70;;;1.60;;
7707;SDS011;3896;48.758;8.888;2023-02-01T01:22:23;2.27;;;1.87;;
7707;SDS011;3896;48.758;8.888;2023-02-01T01:24:49;2.03;;;1.60;;
7707;SDS011;3896;48.758;8.888;2023-02-01T01:27:15;2.63;;;1.97;;
7707;SDS011;3896;48.758;8.888;2023-02-01T01:29:40;2.60;;;2.40;;
7707;SDS011;3896;48.758;8.888;2023-02-01T01:32:06;2.23;;;1.67;;
7707;SDS011;3896;48.758;8.888;2023-02-01T01:34:31;2.90;;;2.53;;
7707;SDS011;3896;48.758;8.888;2023-02-01T01:36:57;2.30;;;2.10;;
7707;SDS011;3896;48.758;8.888;2023-02-01T01:39:23;2.63;;;2.13;;
7707;SDS011;3896;48.758;8.888;2023-02-01T01:41:48;2.00;;;1.87;;
7707;SDS011;3896;48.758;8.888;2023-02-01T01:47:21;1.50;;;1.40;;
7707;SDS011;3896;48.758;8.888;2023-02-01T01:49:47;1.97;;;1.80;;
7707;SDS011;3896;48.758;8.888;2023-02-01T01:52:13;2.27;;;2.00;;
7707;SDS011;3896;48.758;8.888;2023-02-01T01:54:43;2.60;;;1.80;;
7707;SDS011;3896;48.758;8.888;2023-02-01T01:57:20;2.00;;;1.87;;
7707;SDS011;3896;48.758;8.888;2023-02-01T01:59:53;2.13;;;1.90;;
7707;SDS011;3896;48.758;8.888;2023-02-01T02:02:25;1.90;;;1.80;;
7707;SDS011;3896;48.758;8.888;2023-02-01T02:04:51;2.83;;;1.40;;
7707;SDS011;3896;48.758;8.888;2023-02-01T02:07:21;1.50;;;1.43;;
7707;SDS011;3896;48.758;8.888;2023-02-01T02:09:52;1.67;;;1.57;;
7707;SDS011;3896;48.758;8.888;2023-02-01T02:12:18;1.67;;;1.37;;
7707;SDS011;3896;48.758;8.888;2023-02-01T02:14:43;1.60;;;1.50;;
7707;SDS011;3896;48.758;8.888;2023-02-01T02:17:30;1.57;;;1.47;;
7707;SDS011;3896;48.758;8.888;2023-02-01T02:34:33;2.67;;;1.47;;
7707;SDS011;3896;48.758;8.888;2023-02-01T02:40:21;1.50;;;1.40;;
7707;SDS011;3896;48.758;8.888;2023-02-01T02:45:52;1.40;;;1.30;;
7707;SDS011;3896;48.758;8.888;2023-02-01T02:51:35;1.60;;;1.50;;
7707;SDS011;3896;48.758;8.888;2023-02-01T02:54:34;1.50;;;1.40;;
7707;SDS011;3896;48.758;8.888;2023-02-01T02:57:11;1.57;;;1.47;;
7707;SDS011;3896;48.758;8.888;2023-02-01T03:00:03;1.63;;;1.40;;
7707;SDS011;3896;48.758;8.888;2023-02-01T03:02:50;1.87;;;1.77;;
7707;SDS011;3896;48.758;8.888;2023-02-01T03:05:35;2.00;;;1.80;;
7707;SDS011;3896;48.758;8.888;2023-02-01T03:13:42;1.77;;;1.67;;
7707;SDS011;3896;48.758;8.888;2023-02-01T03:16:26;2.13;;;1.70;;
7707;SDS011;3896;48.758;8.888;2023-02-01T03:19:27;2.57;;;2.03;;
7707;SDS011;3896;48.758;8.888;2023-02-01T03:22:02;1.97;;;1.60;;
7707;SDS011;3896;48.758;8.888;2023-02-01T03:24:32;1.70;;;1.60;;
7707;SDS011;3896;48.758;8.888;2023-02-01T03:27:10;1.90;;;1.80;;
7707;SDS011;3896;48.758;8.888;2023-02-01T03:30:04;1.63;;;1.53;;
7707;SDS011;3896;48.758;8.888;2023-02-01T03:32:34;2.10;;;1.50;;
7707;SDS011;3896;48.758;8.888;2023-02-01T03:35:39;1.40;;;1.20;;
7707;SDS011;3896;48.758;8.888;2023-02-01T03:41:57;1.33;;;1.30;;
7707;SDS011;3896;48.758;8.888;2023-02-01T03:44:14;1.67;;;1.30;;
7707;SDS011;3896;48.758;8.888;2023-02-01T03:46:43;0.83;;;0.83;;
7707;SDS011;3896;48.758;8.888;2023-02-01T03:49:20;2.27;;;1.10;;
7707;SDS011;3896;48.758;8.888;2023-02-01T03:52:18;1.20;;;1.10;;
7707;SDS011;3896;48.758;8.888;2023-02-01T03:54:48;1.40;;;1.30;;
7707;SDS011;3896;48.758;8.888;2023-02-01T03:57:16;1.27;;;1.03;;
7707;SDS011;3896;48.758;8.888;2023-02-01T03:59:48;1.10;;;1.00;;
7707;SDS011;3896;48.758;8.888;2023-02-01T04:02:15;0.90;;;0.90;;
7707;SDS011;3896;48.758;8.888;2023-02-01T04:04:41;3.53;;;1.13;;
7707;SDS011;3896;48.758;8.888;2023-02-01T04:07:06;2.57;;;1.17;;
7707;SDS011;3896;48.758;8.888;2023-02-01T04:09:32;1.47;;;1.30;;
7707;SDS011;3896;48.758;8.888;2023-02-01T04:11:57;1.23;;;1.10;;
7707;SDS011;3896;48.758;8.888;2023-02-01T04:14:23;1.30;;;1.20;;
7707;SDS011;3896;48.758;8.888;2023-02-01T04:16:48;1.70;;;1.60;;
7707;SDS011;3896;48.758;8.888;2023-02-01T04:19:14;1.37;;;1.20;;
7707;SDS011;3896;48.758;8.888;2023-02-01T04:21:40;1.30;;;1.20;;
7707;SDS011;3896;48.758;8.888;2023-02-01T04:24:05;1.00;;;1.00;;
7707;SDS011;3896;48.758;8.888;2023-02-01T04:26:31;1.20;;;1.20;;
7707;SDS011;3896;48.758;8.888;2023-02-01T04:28:57;1.60;;;1.50;;
7707;SDS011;3896;48.758;8.888;2023-02-01T04:31:23;0.90;;;0.90;;
7707;SDS011;3896;48.758;8.888;2023-02-01T04:33:52;1.07;;;0.97;;
7707;SDS011;3896;48.758;8.888;2023-02-01T04:36:19;1.10;;;1.10;;
7707;SDS011;3896;48.758;8.888;2023-02-01T04:38:46;1.20;;;1.20;;
7707;SDS011;3896;48.758;8.888;2023-02-01T04:41:16;1.57;;;1.30;;
7707;SDS011;3896;48.758;8.888;2023-02-01T04:43:45;1.37;;;1.27;;
7707;SDS011;3896;48.758;8.888;2023-02-01T04:46:11;2.60;;;2.40;;
7707;SDS011;3896;48.758;8.888;2023-02-01T04:48:37;1.17;;;1.17;;
7707;SDS011;3896;48.758;8.888;2023-02-01T04:51:02;1.30;;;1.30;;
7707;SDS011;3896;48.758;8.888;2023-02-01T04:53:28;1.30;;;1.20;;
7707;SDS011;3896;48.758;8.888;2023-02-01T04:55:54;1.43;;;1.33;;
7707;SDS011;3896;48.758;8.888;2023-02-01T04:58:20;1.57;;;1.47;;
7707;SDS011;3896;48.758;8.888;2023-02-01T05:00:46;2.00;;;1.10;;
7707;SDS011;3896;48.758;8.888;2023-02-01T05:03:12;2.20;;;1.40;;
7707;SDS011;3896;48.758;8.888;2023-02-01T05:05:37;3.17;;;1.50;;
7707;SDS011;3896;48.758;8.888;2023-02-01T05:08:03;2.13;;;1.07;;
7707;SDS011;3896;48.758;8.888;2023-02-01T05:10:28;3.43;;;1.60;;
7707;SDS011;3896;48.758;8.888;2023-02-01T05:12:54;2.93;;;1.60;;
7707;SDS011;3896;48.758;8.888;2023-02-01T05:15:38;1.50;;;1.40;;
7707;SDS011;3896;48.758;8.888;2023-02-01T05:18:04;1.30;;;1.20;;
7707;SDS011;3896;48.758;8.888;2023-02-01T05:20:30;1.67;;;1.23;;
7707;SDS011;3896;48.758;8.888;2023-02-01T05:22:55;4.13;;;2.03;;
7707;SDS011;3896;48.758;8.888;2023-02-01T05:25:21;2.53;;;1.83;;
7707;SDS011;3896;48.758;8.888;2023-02-01T05:27:47;3.37;;;1.90;;
7707;SDS011;3896;48.758;8.888;2023-02-01T05:30:12;1.60;;;1.50;;
7707;SDS011;3896;48.758;8.888;2023-02-01T05:32:38;1.37;;;1.23;;
7707;SDS011;3896;48.758;8.888;2023-02-01T05:35:04;3.10;;;1.97;;
7707;SDS011;3896;48.758;8.888;2023-02-01T05:37:30;2.30;;;1.10;;
7707;SDS011;3896;48.758;8.888;2023-02-01T05:39:56;1.53;;;1.20;;
7707;SDS011;3896;48.758;8.888;2023-02-01T05:42:22;1.60;;;1.50;;
7707;SDS011;3896;48.758;8.888;2023-02-01T05:44:47;1.80;;;1.70;;
7707;SDS011;3896;48.758;8.888;2023-02-01T05:47:13;1.60;;;1.50;;
7707;SDS011;3896;48.758;8.888;2023-02-01T05:49:38;3.27;;;2.07;;
7707;SDS011;3896;48.758;8.888;2023-02-01T05:52:04;2.60;;;1.80;;
7707;SDS011;3896;48.758;8.888;2023-02-01T05:54:30;2.50;;;2.10;;
7707;SDS011;3896;48.758;8.888;2023-02-01T05:56:55;1.87;;;1.63;;
7707;SDS011;3896;48.758;8.888;2023-02-01T05:59:21;2.90;;;1.70;;
7707;SDS011;3896;48.758;8.888;2023-02-01T06:01:47;3.70;;;1.57;;
7707;SDS011;3896;48.758;8.888;2023-02-01T06:04:13;2.00;;;1.60;;
7707;SDS011;3896;48.758;8.888;2023-02-01T06:06:38;2.43;;;1.70;;
7707;SDS011;3896;48.758;8.888;2023-02-01T06:09:04;2.07;;;1.80;;
7707;SDS011;3896;48.758;8.888;2023-02-01T06:11:30;3.80;;;1.87;;
7707;SDS011;3896;48.758;8.888;2023-02-01T06:13:55;1.63;;;1.53;;
7707;SDS011;3896;48.758;8.888;2023-02-01T06:16:21;4.57;;;2.10;;
7707;SDS011;3896;48.758;8.888;2023-02-01T06:18:47;3.70;;;2.63;;
7707;SDS011;3896;48.758;8.888;2023-02-01T06:21:13;3.10;;;2.13;;
7707;SDS011;3896;48.758;8.888;2023-02-01T06:23:48;3.27;;;2.83;;
7707;SDS011;3896;48.758;8.888;2023-02-01T06:26:14;2.43;;;2.20;;
7707;SDS011;3896;48.758;8.888;2023-02-01T06:28:42;3.10;;;2.10;;
7707;SDS011;3896;48.758;8.888;2023-02-01T06:31:07;3.20;;;2.20;;
7707;SDS011;3896;48.758;8.888;2023-02-01T06:33:34;3.57;;;2.43;;
7707;SDS011;3896;48.758;8.888;2023-02-01T06:36:00;2.60;;;2.40;;
7707;SDS011;3896;48.758;8.888;2023-02-01T06:38:28;4.97;;;2.10;;
7707;SDS011;3896;48.758;8.888;2023-02-01T06:40:55;3.47;;;2.47;;
7707;SDS011;3896;48.758;8.888;2023-02-01T06:43:22;4.90;;;2.10;;
7707;SDS011;3896;48.758;8.888;2023-02-01T06:45:49;4.37;;;2.20;;
7707;SDS011;3896;48.758;8.888;2023-02-01T06:48:15;2.93;;;2.17;;
7707;SDS011;3896;48.758;8.888;2023-02-01T06:50:40;2.43;;;1.93;;
7707;SDS011;3896;48.758;8.888;2023-02-01T06:53:06;3.63;;;2.70;;
7707;SDS011;3896;48.758;8.888;2023-02-01T06:55:32;3.40;;;2.30;;
7707;SDS011;3896;48.758;8.888;2023-02-01T06:57:57;5.77;;;2.70;;
7707;SDS011;3896;48.758;8.888;2023-02-01T07:00:23;3.13;;;2.57;;
7707;SDS011;3896;48.758;8.888;2023-02-01T07:02:49;5.53;;;2.90;;
7707;SDS011;3896;48.758;8.888;2023-02-01T07:05:15;2.60;;;2.37;;
7707;SDS011;3896;48.758;8.888;2023-02-01T07:07:41;2.70;;;2.13;;
7707;SDS011;3896;48.758;8.888;2023-02-01T07:10:08;3.03;;;2.33;;
7707;SDS011;3896;48.758;8.888;2023-02-01T07:12:35;5.37;;;2.60;;
7707;SDS011;3896;48.758;8.888;2023-02-01T07:15:00;4.40;;;1.97;;
7707;SDS011;3896;48.758;8.888;2023-02-01T07:17:27;3.73;;;2.70;;
7707;SDS011;3896;48.758;8.888;2023-02-01T07:19:54;3.87;;;2.13;;
7707;SDS011;3896;48.758;8.888;2023-02-01T07:22:20;4.47;;;2.37;;
7707;SDS011;3896;48.758;8.888;2023-02-01T07:24:46;3.23;;;2.20;;
7707;SDS011;3896;48.758;8.888;2023-02-01T07:27:11;4.33;;;2.43;;
7707;SDS011;3896;48.758;8.888;2023-02-01T07:29:37;7.03;;;2.73;;
7707;SDS011;3896;48.758;8.888;2023-02-01T07:32:03;5.67;;;2.33;;
7707;SDS011;3896;48.758;8.888;2023-02-01T07:34:29;7.27;;;2.30;;
7707;SDS011;3896;48.758;8.888;2023-02-01T07:36:55;3.80;;;2.60;;
7707;SDS011;3896;48.758;8.888;2023-02-01T07:39:21;3.80;;;2.40;;
7707;SDS011;3896;48.758;8.888;2023-02-01T07:41:47;5.53;;;2.37;;
7707;SDS011;3896;48.758;8.888;2023-02-01T07:44:13;7.27;;;2.77;;
7707;SDS011;3896;48.758;8.888;2023-02-01T07:46:38;7.03;;;2.80;;
7707;SDS011;3896;48.758;8.888;2023-02-01T07:49:04;4.20;;;2.23;;
7707;SDS011;3896;48.758;8.888;2023-02-01T07:51:30;5.53;;;2.93;;
7707;SDS011;3896;48.758;8.888;2023-02-01T07:53:56;10.73;;;2.57;;
7707;SDS011;3896;48.758;8.888;2023-02-01T07:56:22;8.57;;;2.97;;
7707;SDS011;3896;48.758;8.888;2023-02-01T07:58:48;6.70;;;2.23;;
7707;SDS011;3896;48.758;8.888;2023-02-01T08:01:16;10.40;;;3.13;;
7707;SDS011;3896;48.758;8.888;2023-02-01T08:04:07;5.77;;;2.67;;
7707;SDS011;3896;48.758;8.888;2023-02-01T08:06:34;11.47;;;4.30;;
7707;SDS011;3896;48.758;8.888;2023-02-01T08:09:00;7.20;;;2.70;;
7707;SDS011;3896;48.758;8.888;2023-02-01T08:11:26;4.57;;;2.93;;
7707;SDS011;3896;48.758;8.888;2023-02-01T08:13:51;6.67;;;3.10;;
7707;SDS011;3896;48.758;8.888;2023-02-01T08:16:18;8.17;;;2.97;;
7707;SDS011;3896;48.758;8.888;2023-02-01T08:18:45;7.17;;;2.83;;
7707;SDS011;3896;48.758;8.888;2023-02-01T08:21:12;7.00;;;2.60;;
7707;SDS011;3896;48.758;8.888;2023-02-01T08:23:48;6.13;;;2.57;;
7707;SDS011;3896;48.758;8.888;2023-02-01T08:26:16;6.87;;;2.73;;
7707;SDS011;3896;48.758;8.888;2023-02-01T08:28:48;6.50;;;3.00;;
7707;SDS011;3896;48.758;8.888;2023-02-01T08:31:17;7.67;;;2.87;;
7707;SDS011;3896;48.758;8.888;2023-02-01T08:33:47;8.13;;;2.97;;
7707;SDS011;3896;48.758;8.888;2023-02-01T08:36:14;5.60;;;2.80;;
7707;SDS011;3896;48.758;8.888;2023-02-01T08:38:40;6.30;;;2.80;;
7707;SDS011;3896;48.758;8.888;2023-02-01T08:41:10;10.33;;;2.73;;
7707;SDS011;3896;48.758;8.888;2023-02-01T08:43:38;6.10;;;2.20;;
7707;SDS011;3896;48.758;8.888;2023-02-01T08:46:04;6.00;;;2.20;;
7707;SDS011;3896;48.758;8.888;2023-02-01T08:48:31;4.97;;;2.40;;
7707;SDS011;3896;48.758;8.888;2023-02-01T08:50:57;7.70;;;3.47;;
7707;SDS011;3896;48.758;8.888;2023-02-01T08:53:25;5.10;;;2.00;;
7707;SDS011;3896;48.758;8.888;2023-02-01T08:55:51;4.67;;;2.10;;
7707;SDS011;3896;48.758;8.888;2023-02-01T08:58:16;6.13;;;1.90;;
7707;SDS011;3896;48.758;8.888;2023-02-01T09:00:43;6.33;;;2.73;;
7707;SDS011;3896;48.758;8.888;2023-02-01T09:03:13;7.03;;;2.00;;
7707;SDS011;3896;48.758;8.888;2023-02-01T09:05:39;4.17;;;2.20;;
7707;SDS011;3896;48.758;8.888;2023-02-01T09:08:05;6.50;;;3.13;;
7707;SDS011;3896;48.758;8.888;2023-02-01T09:10:30;6.47;;;3.40;;
7707;SDS011;3896;48.758;8.888;2023-02-01T09:12:56;7.00;;;2.00;;
7707;SDS011;3896;48.758;8.888;2023-02-01T09:15:22;6.70;;;3.03;;
7707;SDS011;3896;48.758;8.888;2023-02-01T09:17:47;6.87;;;2.37;;
7707;SDS011;3896;48.758;8.888;2023-02-01T09:20:14;7.90;;;2.83;;
7707;SDS011;3896;48.758;8.888;2023-02-01T09:22:40;3.73;;;2.50;;
7707;SDS011;3896;48.758;8.888;2023-02-01T09:25:06;6.27;;;2.80;;
7707;SDS011;3896;48.758;8.888;2023-02-01T09:27:33;5.50;;;2.23;;
7707;SDS011;3896;48.758;8.888;2023-02-01T09:29:58;5.70;;;2.17;;
7707;SDS011;3896;48.758;8.888;2023-02-01T09:32:24;6.23;;;2.20;;
7707;SDS011;3896;48.758;8.888;2023-02-01T09:34:50;5.13;;;2.30;;
7707;SDS011;3896;48.758;8.888;2023-02-01T09:37:16;10.20;;;2.63;;
7707;SDS011;3896;48.758;8.888;2023-02-01T09:39:42;7.47;;;2.17;;
7707;SDS011;3896;48.758;8.888;2023-02-01T09:47:27;9.40;;;2.40;;
7707;SDS011;3896;48.758;8.888;2023-02-01T09:49:55;6.90;;;2.20;;
7707;SDS011;3896;48.758;8.888;2023-02-01T09:52:40;10.50;;;2.53;;
7707;SDS011;3896;48.758;8.888;2023-02-01T09:55:36;8.80;;;3.23;;
7707;SDS011;3896;48.758;8.888;2023-02-01T09:58:37;4.90;;;2.20;;
7707;SDS011;3896;48.758;8.888;2023-02-01T10:01:04;7.27;;;2.97;;
7707;SDS011;3896;48.758;8.888;2023-02-01T10:03:36;5.23;;;2.03;;
7707;SDS011;3896;48.758;8.888;2023-02-01T10:09:02;5.87;;;1.80;;
7707;SDS011;3896;48.758;8.888;2023-02-01T10:11:42;7.40;;;2.80;;
7707;SDS011;3896;48.758;8.888;2023-02-01T10:14:37;6.67;;;2.43;;
7707;SDS011;3896;48.758;8.888;2023-02-01T10:22:54;5.83;;;2.13;;
7707;SDS011;3896;48.758;8.888;2023-02-01T10:25:26;6.63;;;2.73;;
7707;SDS011;3896;48.758;8.888;2023-02-01T10:28:03;4.77;;;2.07;;
7707;SDS011;3896;48.758;8.888;2023-02-01T10:30:39;7.30;;;2.43;;
7707;SDS011;3896;48.758;8.888;2023-02-01T10:35:41;7.53;;;2.10;;
7707;SDS011;3896;48.758;8.888;2023-02-01T10:38:26;6.87;;;2.50;;
7707;SDS011;3896;48.758;8.888;2023-02-01T10:40:54;10.10;;;2.30;;
7707;SDS011;3896;48.758;8.888;2023-02-01T10:43:41;11.53;;;3.20;;
7707;SDS011;3896;48.758;8.888;2023-02-01T10:46:08;9.93;;;2.57;;
7707;SDS011;3896;48.758;8.888;2023-02-01T10:48:34;7.77;;;2.00;;
7707;SDS011;3896;48.758;8.888;2023-02-01T10:51:00;8.87;;;3.07;;
7707;SDS011;3896;48.758;8.888;2023-02-01T10:53:35;6.47;;;2.10;;
7707;SDS011;3896;48.758;8.888;2023-02-01T10:56:18;11.60;;;2.47;;
7707;SDS011;3896;48.758;8.888;2023-02-01T10:58:50;9.97;;;2.63;;
7707;SDS011;3896;48.758;8.888;2023-02-01T11:01:21;8.27;;;2.27;;
7707;SDS011;3896;48.758;8.888;2023-02-01T11:03:53;7.40;;;2.50;;
7707;SDS011;3896;48.758;8.888;2023-02-01T11:06:37;8.17;;;2.20;;
7707;SDS011;3896;48.758;8.888;2023-02-01T11:09:10;6.50;;;2.20;;
7707;SDS011;3896;48.758;8.888;2023-02-01T11:14:14;10.03;;;2.70;;
7707;SDS011;3896;48.758;8.888;2023-02-01T11:19:47;7.37;;;2.37;;
7707;SDS011;3896;48.758;8.888;2023-02-01T11:22:24;10.57;;;3.33;;
7707;SDS011;3896;48.758;8.888;2023-02-01T11:24:52;8.73;;;2.03;;
7707;SDS011;3896;48.758;8.888;2023-02-01T11:27:19;3.10;;;1.57;;
7707;SDS011;3896;48.758;8.888;2023-02-01T11:29:48;7.03;;;2.03;;
7707;SDS011;3896;48.758;8.888;2023-02-01T11:32:16;8.80;;;3.03;;
7707;SDS011;3896;48.758;8.888;2023-02-01T11:37:20;4.90;;;1.77;;
7707;SDS011;3896;48.758;8.888;2023-02-01T11:39:54;6.50;;;2.07;;
7707;SDS011;3896;48.758;8.888;2023-02-01T11:42:21;5.17;;;2.27;;
7707;SDS011;3896;48.758;8.888;2023-02-01T11:44:47;12.67;;;2.97;;
7707;SDS011;3896;48.758;8.888;2023-02-01T11:47:29;12.43;;;2.93;;
7707;SDS011;3896;48.758;8.888;2023-02-01T11:50:00;8.73;;;2.43;;
7707;SDS011;3896;48.758;8.888;2023-02-01T11:58:38;9.70;;;2.77;;
7707;SDS011;3896;48.758;8.888;2023-02-01T12:12:20;9.40;;;2.37;;
7707;SDS011;3896;48.758;8.888;2023-02-01T12:15:03;6.57;;;2.07;;
7707;SDS011;3896;48.758;8.888;2023-02-01T12:26:54;5.03;;;1.90;;
7707;SDS011;3896;48.758;8.888;2023-02-01T12:29:29;9.23;;;2.90;;
7707;SDS011;3896;48.758;8.888;2023-02-01T12:35:14;8.67;;;2.53;;
7707;SDS011;3896;48.758;8.888;2023-02-01T12:40:46;7.63;;;2.33;;
7707;SDS011;3896;48.758;8.888;2023-02-01T12:43:15;6.67;;;2.10;;
7707;SDS011;3896;48.758;8.888;2023-02-01T12:46:13;7.67;;;2.10;;
7707;SDS011;3896;48.758;8.888;2023-02-01T12:48:48;5.57;;;2.37;;
7707;SDS011;3896;48.758;8.888;2023-02-01T12:51:28;9.47;;;3.10;;
7707;SDS011;3896;48.758;8.888;2023-02-01T12:54:02;8.03;;;2.77;;
7707;SDS011;3896;48.758;8.888;2023-02-01T12:59:22;6.77;;;1.93;;
7707;SDS011;3896;48.758;8.888;2023-02-01T13:01:54;5.07;;;2.23;;
7707;SDS011;3896;48.758;8.888;2023-02-01T13:07:18;4.67;;;2.40;;
7707;SDS011;3896;48.758;8.888;2023-02-01T13:12:26;8.47;;;2.53;;
7707;SDS011;3896;48.758;8.888;2023-02-01T13:15:12;10.23;;;2.97;;
7707;SDS011;3896;48.758;8.888;2023-02-01T13:17:44;13.20;;;2.30;;
7707;SDS011;3896;48.758;8.888;2023-02-01T13:20:23;7.53;;;2.20;;
7707;SDS011;3896;48.758;8.888;2023-02-01T13:22:57;8.33;;;2.27;;
7707;SDS011;3896;48.758;8.888;2023-02-01T13:25:48;9.80;;;2.27;;
7707;SDS011;3896;48.758;8.888;2023-02-01T13:39:36;10.93;;;2.60;;
7707;SDS011;3896;48.758;8.888;2023-02-01T13:44:52;5.20;;;1.83;;
7707;SDS011;3896;48.758;8.888;2023-02-01T13:49:54;7.20;;;2.20;;
7707;SDS011;3896;48.758;8.888;2023-02-01T13:52:26;8.53;;;2.10;;
7707;SDS011;3896;48.758;8.888;2023-02-01T13:57:45;6.27;;;2.33;;
7707;SDS011;3896;48.758;8.888;2023-02-01T14:24:17;7.53;;;2.87;;
7707;SDS011;3896;48.758;8.888;2023-02-01T14:29:55;7.37;;;4.17;;
7707;SDS011;3896;48.758;8.888;2023-02-01T14:32:25;9.03;;;2.27;;
7707;SDS011;3896;48.758;8.888;2023-02-01T14:34:59;10.23;;;3.30;;
7707;SDS011;3896;48.758;8.888;2023-02-01T14:37:28;6.77;;;2.40;;
7707;SDS011;3896;48.758;8.888;2023-02-01T14:42:44;7.80;;;2.90;;
7707;SDS011;3896;48.758;8.888;2023-02-01T14:55:47;6.57;;;2.13;;
7707;SDS011;3896;48.758;8.888;2023-02-01T15:06:39;7.07;;;2.60;;
7707;SDS011;3896;48.758;8.888;2023-02-01T15:09:16;6.87;;;2.40;;
7707;SDS011;3896;48.758;8.888;2023-02-01T15:14:29;11.57;;;2.20;;
7707;SDS011;3896;48.758;8.888;2023-02-01T15:16:56;10.37;;;2.90;;
7707;SDS011;3896;48.758;8.888;2023-02-01T15:19:23;7.40;;;2.63;;
7707;SDS011;3896;48.758;8.888;2023-02-01T15:21:51;7.40;;;2.50;;
7707;SDS011;3896;48.758;8.888;2023-02-01T15:24:36;9.23;;;2.77;;
7707;SDS011;3896;48.758;8.888;2023-02-01T15:27:03;7.83;;;2.47;;
7707;SDS011;3896;48.758;8.888;2023-02-01T15:29:30;10.80;;;2.27;;
7707;SDS011;3896;48.758;8.888;2023-02-01T15:31:58;8.27;;;1.70;;
7707;SDS011;3896;48.758;8.888;2023-02-01T15:34:33;5.47;;;2.07;;
7707;SDS011;3896;48.758;8.888;2023-02-01T15:37:12;12.50;;;2.47;;
7707;SDS011;3896;48.758;8.888;2023-02-01T15:42:55;6.17;;;2.33;;
7707;SDS011;3896;48.758;8.888;2023-02-01T15:45:27;4.93;;;1.93;;
7707;SDS011;3896;48.758;8.888;2023-02-01T15:47:55;6.83;;;2.27;;
7707;SDS011;3896;48.758;8.888;2023-02-01T15:50:22;6.17;;;2.10;;
7707;SDS011;3896;48.758;8.888;2023-02-01T15:52:49;12.23;;;2.40;;
7707;SDS011;3896;48.758;8.888;2023-02-01T15:57:48;10.33;;;2.17;;
7707;SDS011;3896;48.758;8.888;2023-02-01T16:02:52;5.97;;;2.10;;
7707;SDS011;3896;48.758;8.888;2023-02-01T16:05:34;8.30;;;2.63;;
7707;SDS011;3896;48.758;8.888;2023-02-01T16:10:44;5.87;;;2.73;;
7707;SDS011;3896;48.758;8.888;2023-02-01T16:13:10;4.47;;;2.33;;
7707;SDS011;3896;48.758;8.888;2023-02-01T16:15:37;13.27;;;3.27;;
7707;SDS011;3896;48.758;8.888;2023-02-01T16:18:03;8.50;;;2.97;;
7707;SDS011;3896;48.758;8.888;2023-02-01T16:20:29;7.80;;;3.33;;
7707;SDS011;3896;48.758;8.888;2023-02-01T16:22:55;7.50;;;2.50;;
7707;SDS011;3896;48.758;8.888;2023-02-01T16:25:21;9.20;;;3.00;;
7707;SDS011;3896;48.758;8.888;2023-02-01T16:27:46;10.90;;;3.90;;
7707;SDS011;3896;48.758;8.888;2023-02-01T16:30:12;6.67;;;2.40;;
7707;SDS011;3896;48.758;8.888;2023-02-01T16:32:38;10.77;;;2.57;;
7707;SDS011;3896;48.758;8.888;2023-02-01T16:35:04;9.33;;;3.67;;
7707;SDS011;3896;48.758;8.888;2023-02-01T16:37:38;5.90;;;2.57;;
7707;SDS011;3896;48.758;8.888;2023-02-01T16:40:03;6.37;;;2.80;;
7707;SDS011;3896;48.758;8.888;2023-02-01T16:42:29;3.47;;;2.70;;
7707;SDS011;3896;48.758;8.888;2023-02-01T16:44:55;9.43;;;2.90;;
7707;SDS011;3896;48.758;8.888;2023-02-01T16:47:21;4.13;;;2.37;;
7707;SDS011;3896;48.758;8.888;2023-02-01T16:49:47;10.37;;;2.70;;
7707;SDS011;3896;48.758;8.888;2023-02-01T16:52:14;5.93;;;2.53;;
7707;SDS011;3896;48.758;8.888;2023-02-01T16:54:43;7.40;;;2.90;;
7707;SDS011;3896;48.758;8.888;2023-02-01T16:57:12;7.77;;;2.90;;
7707;SDS011;3896;48.758;8.888;2023-02-01T16:59:40;6.17;;;2.27;;
7707;SDS011;3896;48.758;8.888;2023-02-01T17:02:09;9.03;;;2.70;;
7707;SDS011;3896;48.758;8.888;2023-02-01T17:04:37;9.63;;;2.97;;
7707;SDS011;3896;48.758;8.888;2023-02-01T17:07:03;5.67;;;2.30;;
7707;SDS011;3896;48.758;8.888;2023-02-01T17:09:34;9.07;;;2.63;;
7707;SDS011;3896;48.758;8.888;2023-02-01T17:12:01;5.97;;;2.73;;
7707;SDS011;3896;48.758;8.888;2023-02-01T17:14:29;7.10;;;3.00;;
7707;SDS011;3896;48.758;8.888;2023-02-01T17:16:57;9.50;;;2.73;;
7707;SDS011;3896;48.758;8.888;2023-02-01T17:19:23;6.47;;;2.17;;
7707;SDS011;3896;48.758;8.888;2023-02-01T17:21:49;7.30;;;2.50;;
7707;SDS011;3896;48.758;8.888;2023-02-01T17:24:21;8.13;;;2.37;;
7707;SDS011;3896;48.758;8.888;2023-02-01T17:26:49;8.87;;;2.37;;
7707;SDS011;3896;48.758;8.888;2023-02-01T17:29:16;8.50;;;3.00;;
7707;SDS011;3896;48.758;8.888;2023-02-01T17:31:43;8.27;;;2.57;;
7707;SDS011;3896;48.758;8.888;2023-02-01T17:34:12;8.77;;;3.20;;
7707;SDS011;3896;48.758;8.888;2023-02-01T17:36:43;8.67;;;2.67;;
7707;SDS011;3896;48.758;8.888;2023-02-01T17:39:10;4.83;;;2.47;;
7707;SDS011;3896;48.758;8.888;2023-02-01T17:41:55;9.13;;;3.27;;
7707;SDS011;3896;48.758;8.888;2023-02-01T17:44:21;10.70;;;3.60;;
7707;SDS011;3896;48.758;8.888;2023-02-01T17:46:46;9.43;;;2.83;;
7707;SDS011;3896;48.758;8.888;2023-02-01T17:49:12;8.73;;;3.77;;
7707;SDS011;3896;48.758;8.888;2023-02-01T17:51:37;10.17;;;3.33;;
7707;SDS011;3896;48.758;8.888;2023-02-01T17:54:06;7.07;;;2.73;;
7707;SDS011;3896;48.758;8.888;2023-02-01T17:56:36;5.23;;;2.97;;
7707;SDS011;3896;48.758;8.888;2023-02-01T17:59:02;9.43;;;3.60;;
7707;SDS011;3896;48.758;8.888;2023-02-01T18:01:27;8.40;;;2.53;;
7707;SDS011;3896;48.758;8.888;2023-02-01T18:03:53;12.00;;;3.00;;
7707;SDS011;3896;48.758;8.888;2023-02-01T18:06:20;6.17;;;2.70;;
7707;SDS011;3896;48.758;8.888;2023-02-01T18:08:47;7.27;;;2.77;;
7707;SDS011;3896;48.758;8.888;2023-02-01T18:11:13;9.43;;;2.53;;
7707;SDS011;3896;48.758;8.888;2023-02-01T18:13:41;8.10;;;2.20;;
7707;SDS011;3896;48.758;8.888;2023-02-01T18:16:17;10.13;;;3.03;;
7707;SDS011;3896;48.758;8.888;2023-02-01T18:18:45;9.60;;;2.23;;
7707;SDS011;3896;48.758;8.888;2023-02-01T18:21:11;10.93;;;3.30;;
7707;SDS011;3896;48.758;8.888;2023-02-01T18:23:37;16.77;;;6.87;;
7707;SDS011;3896;48.758;8.888;2023-02-01T18:26:02;6.10;;;2.37;;
7707;SDS011;3896;48.758;8.888;2023-02-01T18:28:28;8.40;;;2.97;;
7707;SDS011;3896;48.758;8.888;2023-02-01T18:30:54;8.83;;;2.63;;
7707;SDS011;3896;48.758;8.888;2023-02-01T18:33:20;6.17;;;3.60;;